createdAt,value
2017-10-31T00:01:42.692Z,5.92
2017-10-31T00:04:19.745Z,5.88
2017-10-31T00:06:56.375Z,5.77
2017-10-31T00:09:33.629Z,5.73
2017-10-31T00:12:13.379Z,5.75
2017-10-31T00:14:50.127Z,5.66
2017-10-31T00:17:26.864Z,5.62
2017-10-31T00:20:03.595Z,5.65
2017-10-31T05:23:03.191Z,5.33
2017-10-31T05:25:32.108Z,5.54
2017-10-31T05:28:11.706Z,5.71
2017-10-31T05:30:48.609Z,5.75
2017-10-31T05:33:27.065Z,5.80
2017-10-31T05:36:04.337Z,5.81
2017-10-31T05:38:42.258Z,6.12
2017-10-31T05:41:20.643Z,6.29
2017-10-31T05:43:57.858Z,6.33
2017-10-31T05:46:34.908Z,6.24
2017-10-31T05:49:12.749Z,6.24
2017-10-31T05:51:49.253Z,6.18
2017-10-31T05:54:27.925Z,6.14
2017-10-31T05:57:04.315Z,6.20
2017-10-31T05:59:42.216Z,6.25
2017-10-31T06:02:18.981Z,6.22
2017-10-31T06:04:55.992Z,6.18
2017-10-31T06:07:32.320Z,6.18
2017-10-31T06:10:09.091Z,6.29
2017-10-31T06:12:45.921Z,6.35
2017-10-31T06:15:22.592Z,6.30
2017-10-31T06:17:59.365Z,6.37
2017-10-31T06:20:30.174Z,6.42
2017-10-31T06:23:13.078Z,6.44
2017-10-31T06:25:47.560Z,6.52
2017-10-31T06:28:30.074Z,6.64
2017-10-31T06:31:14.130Z,6.64
2017-10-31T06:33:50.690Z,6.68
2017-10-31T06:36:27.377Z,6.76
2017-10-31T06:39:06.197Z,6.80
2017-10-31T06:41:45.344Z,6.82
2017-10-31T06:44:22.344Z,6.88
2017-10-31T06:47:00.182Z,6.99
2017-10-31T06:49:36.977Z,7.08
2017-10-31T06:52:13.237Z,7.20
2017-10-31T06:54:49.929Z,7.27
2017-10-31T06:57:27.961Z,7.32
2017-10-31T07:00:04.432Z,7.37
2017-10-31T07:02:44.804Z,7.52
2017-10-31T07:05:21.461Z,7.69
2017-10-31T07:07:58.553Z,7.56
2017-10-31T07:10:36.520Z,7.74
2017-10-31T07:13:14.274Z,7.73
2017-10-31T07:15:51.181Z,7.75
2017-10-31T07:18:28.157Z,7.77
2017-10-31T07:21:05.001Z,7.70
2017-10-31T07:23:38.086Z,7.73
2017-10-31T07:26:14.634Z,7.81
2017-10-31T07:28:54.003Z,7.83
2017-10-31T07:31:31.131Z,7.83
2017-10-31T07:34:10.400Z,7.85
2017-10-31T07:36:39.334Z,7.86
2017-10-31T07:39:08.238Z,8.01
2017-10-31T07:41:46.090Z,8.12
2017-10-31T07:44:23.047Z,8.22
2017-10-31T07:47:01.090Z,8.31
2017-10-31T07:49:37.428Z,8.47
2017-10-31T07:52:15.314Z,8.48
2017-10-31T07:54:52.630Z,8.51
2017-10-31T07:57:31.959Z,8.48
2017-10-31T08:00:08.369Z,8.55
2017-10-31T08:02:46.237Z,8.65
2017-10-31T08:05:22.688Z,8.72
2017-10-31T08:07:59.867Z,8.90
2017-10-31T08:10:37.417Z,9.01
2017-10-31T08:13:14.303Z,9.14
2017-10-31T08:15:52.057Z,9.28
2017-10-31T08:18:29.872Z,9.25
2017-10-31T08:21:06.296Z,9.27
2017-10-31T08:23:37.890Z,9.18
2017-10-31T08:26:14.416Z,9.24
2017-10-31T08:28:52.244Z,9.26
2017-10-31T08:31:29.439Z,9.52
2017-10-31T08:34:06.800Z,9.86
2017-10-31T08:36:43.880Z,10.16
2017-10-31T08:39:21.800Z,10.38
2017-10-31T08:41:58.135Z,10.32
2017-10-31T08:44:36.233Z,10.16
2017-10-31T08:47:13.329Z,10.26
2017-10-31T08:49:50.298Z,10.47
2017-10-31T08:52:27.177Z,10.70
2017-10-31T08:55:04.253Z,10.73
2017-10-31T08:57:40.969Z,10.73
2017-10-31T09:00:18.377Z,10.89
2017-10-31T09:02:56.333Z,10.99
2017-10-31T09:05:34.188Z,10.82
2017-10-31T09:08:10.402Z,10.64
2017-10-31T09:10:47.926Z,10.27
2017-10-31T09:13:24.663Z,10.33
2017-10-31T09:16:02.390Z,10.38
2017-10-31T09:18:39.116Z,10.37
2017-10-31T09:21:16.454Z,10.17
2017-10-31T09:23:45.406Z,10.15
2017-10-31T09:26:28.760Z,10.33
2017-10-31T09:29:06.040Z,10.42
2017-10-31T09:31:42.933Z,10.53
2017-10-31T09:34:19.556Z,10.55
2017-10-31T09:36:58.270Z,10.54
2017-10-31T09:39:35.119Z,10.56
2017-10-31T09:42:12.348Z,10.74
2017-10-31T09:44:49.088Z,10.94
2017-10-31T09:47:32.070Z,11.02
2017-10-31T09:50:08.255Z,11.14
2017-10-31T09:52:45.005Z,11.05
2017-10-31T09:55:21.553Z,11.01
2017-10-31T09:58:00.872Z,10.97
2017-10-31T10:00:37.318Z,10.97
2017-10-31T10:03:15.866Z,10.95
2017-10-31T10:05:54.103Z,11.06
2017-10-31T10:08:30.859Z,10.95
2017-10-31T10:11:07.935Z,10.84
2017-10-31T10:13:45.041Z,10.82
2017-10-31T10:16:21.841Z,10.89
2017-10-31T10:19:00.797Z,10.82
2017-10-31T10:21:36.811Z,10.91
2017-10-31T10:24:14.236Z,10.83
2017-10-31T10:26:50.712Z,10.66
2017-10-31T10:29:28.296Z,10.50
2017-10-31T10:32:05.391Z,10.56
2017-10-31T10:34:42.881Z,10.51
2017-10-31T10:37:19.988Z,10.53
2017-10-31T10:39:57.144Z,10.66
2017-10-31T10:42:36.178Z,10.58
2017-10-31T10:45:12.549Z,10.44
2017-10-31T10:47:49.350Z,10.63
2017-10-31T10:50:31.755Z,10.82
2017-10-31T10:53:08.998Z,11.02
2017-10-31T10:55:45.795Z,10.92
2017-10-31T10:58:22.773Z,10.73
2017-10-31T11:01:04.598Z,10.32
2017-10-31T11:03:41.068Z,10.05
2017-10-31T11:06:17.767Z,10.03
2017-10-31T11:08:54.936Z,9.89
2017-10-31T11:11:32.004Z,9.80
2017-10-31T11:14:08.951Z,9.78
2017-10-31T11:16:52.397Z,9.70
2017-10-31T11:19:29.281Z,9.64
2017-10-31T11:21:59.570Z,9.67
2017-10-31T11:24:36.002Z,9.78
2017-10-31T11:27:12.892Z,9.68
2017-10-31T11:29:49.436Z,9.68
2017-10-31T11:32:26.004Z,9.68
2017-10-31T11:35:02.987Z,9.71
2017-10-31T11:37:44.669Z,9.71
2017-10-31T11:40:21.561Z,9.86
2017-10-31T11:43:00.501Z,9.94
2017-10-31T11:45:38.179Z,9.94
2017-10-31T11:48:14.943Z,9.96
2017-10-31T11:50:51.774Z,10.02
2017-10-31T11:53:28.281Z,9.92
2017-10-31T11:56:04.849Z,9.90
2017-10-31T11:58:41.944Z,9.96
2017-10-31T12:01:18.137Z,10.03
2017-10-31T12:03:56.539Z,10.02
2017-10-31T12:06:33.535Z,10.10
2017-10-31T12:09:10.587Z,10.12
2017-10-31T12:11:47.028Z,10.17
2017-10-31T12:14:24.541Z,10.20
2017-10-31T12:17:00.968Z,10.32
2017-10-31T12:19:37.783Z,10.26
2017-10-31T12:22:14.343Z,10.18
2017-10-31T12:24:51.242Z,10.03
2017-10-31T12:27:27.482Z,10.01
2017-10-31T12:30:06.515Z,9.79
2017-10-31T12:32:44.041Z,9.91
2017-10-31T12:35:20.836Z,10.01
2017-10-31T12:37:57.514Z,10.06
2017-10-31T12:40:37.954Z,10.11
2017-10-31T12:43:14.391Z,10.06
2017-10-31T12:45:51.256Z,10.05
2017-10-31T12:48:27.820Z,10.01
2017-10-31T12:51:06.190Z,10.01
2017-10-31T12:53:43.590Z,9.97
2017-10-31T12:56:21.287Z,9.79
2017-10-31T12:58:57.928Z,9.72
2017-10-31T13:01:34.987Z,9.76
2017-10-31T13:04:11.590Z,9.73
2017-10-31T13:06:49.187Z,9.89
2017-10-31T13:09:25.938Z,10.04
2017-10-31T13:12:08.169Z,10.04
2017-10-31T13:14:44.752Z,9.99
2017-10-31T13:17:21.046Z,10.02
2017-10-31T13:19:59.738Z,10.02
2017-10-31T13:22:28.816Z,9.91
2017-10-31T13:25:05.819Z,9.89
2017-10-31T13:27:42.967Z,9.80
2017-10-31T13:30:19.934Z,9.76
2017-10-31T13:32:56.403Z,9.51
2017-10-31T13:35:33.245Z,9.56
2017-10-31T13:38:10.365Z,9.58
2017-10-31T13:40:48.448Z,9.51
2017-10-31T13:43:28.073Z,9.44
2017-10-31T13:46:06.788Z,9.46
2017-10-31T13:48:43.561Z,9.49
2017-10-31T13:51:20.583Z,9.42
2017-10-31T13:53:56.973Z,9.42
2017-10-31T13:56:33.647Z,9.48
2017-10-31T13:59:10.434Z,9.52
2017-10-31T14:01:47.481Z,9.58
2017-10-31T14:04:26.976Z,9.59
2017-10-31T14:07:04.288Z,9.54
2017-10-31T14:09:41.918Z,9.53
2017-10-31T14:12:19.941Z,9.43
2017-10-31T14:14:57.096Z,9.39
2017-10-31T14:17:33.681Z,9.39
2017-10-31T14:20:12.446Z,9.33
2017-10-31T14:22:49.266Z,9.24
2017-10-31T14:25:26.111Z,9.27
2017-10-31T14:28:03.077Z,9.20
2017-10-31T14:30:41.004Z,9.17
2017-10-31T14:33:17.923Z,9.09
2017-10-31T14:35:55.846Z,9.01
2017-10-31T14:38:32.731Z,8.96
2017-10-31T14:41:11.568Z,8.89
2017-10-31T14:43:48.239Z,8.95
2017-10-31T14:46:25.620Z,8.84
2017-10-31T14:49:02.605Z,8.82
2017-10-31T14:51:40.346Z,8.71
2017-10-31T14:54:16.740Z,8.71
2017-10-31T14:56:56.191Z,8.71
2017-10-31T14:59:34.009Z,8.59
2017-10-31T15:02:15.686Z,8.54
2017-10-31T15:04:52.439Z,8.50
2017-10-31T15:07:37.269Z,8.50
2017-10-31T15:10:18.286Z,8.43
2017-10-31T15:12:54.969Z,8.36
2017-10-31T15:15:32.240Z,8.29
2017-10-31T15:18:09.047Z,8.29
2017-10-31T15:20:45.544Z,8.16
2017-10-31T15:23:16.425Z,8.11
2017-10-31T15:25:53.172Z,8.05
2017-10-31T15:28:33.695Z,8.11
2017-10-31T15:31:09.969Z,8.10
2017-10-31T15:33:48.452Z,8.07
2017-10-31T15:36:25.593Z,8.02
2017-10-31T15:39:02.930Z,8.03
2017-10-31T15:41:39.602Z,7.99
2017-10-31T15:44:19.581Z,7.96
2017-10-31T15:46:56.779Z,7.95
2017-10-31T15:49:33.955Z,7.97
2017-10-31T15:52:10.814Z,7.85
2017-10-31T15:54:52.032Z,7.78
2017-10-31T15:57:28.760Z,7.67
2017-10-31T16:00:05.791Z,7.63
2017-10-31T16:02:52.048Z,7.56
2017-10-31T16:05:29.485Z,7.51
2017-10-31T16:08:06.192Z,7.52
2017-10-31T16:10:44.993Z,7.37
2017-10-31T16:13:22.097Z,7.31
2017-10-31T16:15:59.159Z,7.26
2017-10-31T16:18:36.308Z,7.21
2017-10-31T16:21:13.801Z,7.10
2017-10-31T16:23:54.683Z,7.10
2017-10-31T16:26:34.246Z,7.05
2017-10-31T16:29:15.308Z,6.99
2017-10-31T16:31:52.659Z,6.89
2017-10-31T16:34:29.446Z,6.82
2017-10-31T16:37:11.257Z,6.84
2017-10-31T16:39:48.162Z,6.90
2017-10-31T16:42:25.175Z,6.91
2017-10-31T16:45:02.079Z,6.84
2017-10-31T16:47:39.230Z,6.73
2017-10-31T16:50:16.351Z,6.69
2017-10-31T16:52:53.971Z,6.67
2017-10-31T16:55:30.924Z,6.61
2017-10-31T16:58:08.934Z,6.61
2017-10-31T17:00:45.917Z,6.65
2017-10-31T17:03:22.881Z,6.45
2017-10-31T17:05:59.795Z,6.40
2017-10-31T17:08:37.811Z,6.29
2017-10-31T17:11:14.637Z,6.21
2017-10-31T17:13:51.233Z,6.22
2017-10-31T17:16:20.238Z,6.26
2017-10-31T17:18:59.145Z,6.31
2017-10-31T17:21:35.748Z,6.29
2017-10-31T17:27:09.680Z,6.17
2017-10-31T17:29:46.451Z,6.15
2017-10-31T17:32:24.903Z,6.00
2017-10-31T17:35:02.259Z,5.84
2017-10-31T17:37:39.511Z,5.83
2017-10-31T17:40:17.457Z,5.87
2017-10-31T17:42:55.460Z,5.89
2017-10-31T17:45:34.347Z,5.90
2017-10-31T17:48:12.036Z,5.87
2017-10-31T17:50:49.288Z,5.95
2017-10-31T17:53:26.424Z,5.98
2017-10-31T17:56:03.573Z,6.01
2017-10-31T17:58:40.339Z,6.04
2017-10-31T18:01:17.136Z,6.14
2017-10-31T18:03:56.594Z,6.24
2017-10-31T18:06:33.655Z,6.33
2017-10-31T18:09:10.640Z,6.37
2017-10-31T18:11:47.539Z,6.38
2017-10-31T18:14:26.274Z,6.32
2017-10-31T18:17:03.307Z,6.34
2017-10-31T18:19:41.479Z,6.42
2017-10-31T18:22:18.667Z,6.42
2017-10-31T18:24:58.696Z,6.37
2017-10-31T18:27:36.002Z,6.46
2017-10-31T18:30:13.802Z,6.44
2017-10-31T18:32:50.664Z,6.46
2017-10-31T18:35:29.499Z,6.39
2017-10-31T18:38:06.139Z,6.32
2017-10-31T18:40:45.222Z,6.29
2017-10-31T18:43:22.419Z,6.31
2017-10-31T18:45:59.083Z,6.16
2017-10-31T18:48:36.124Z,6.13
2017-10-31T18:51:14.042Z,6.12
2017-10-31T18:53:51.187Z,6.01
2017-10-31T18:56:28.363Z,6.02
2017-10-31T18:59:05.499Z,6.02
2017-10-31T19:01:42.448Z,6.01
2017-10-31T19:04:19.661Z,6.04
2017-10-31T19:06:59.405Z,6.01
2017-10-31T19:09:28.396Z,6.06
2017-10-31T19:12:04.795Z,6.10
2017-10-31T19:14:41.118Z,6.04
2017-10-31T19:17:18.567Z,6.03
2017-10-31T19:19:55.262Z,5.96
2017-10-31T19:22:25.152Z,5.88
2017-10-31T19:25:02.193Z,5.84
2017-10-31T19:27:39.238Z,5.73
2017-10-31T19:30:15.777Z,5.70
2017-10-31T19:32:52.557Z,5.65
2017-10-31T19:35:29.538Z,5.62
2017-10-31T19:38:06.076Z,5.59
2017-10-31T19:40:42.688Z,5.55
2017-10-31T19:43:19.701Z,5.53
2017-10-31T19:46:00.687Z,5.52
2017-10-31T19:48:37.888Z,5.45
2017-10-31T19:51:14.846Z,5.47
2017-10-31T19:53:51.390Z,5.46
2017-10-31T19:56:28.095Z,5.50
2017-10-31T19:59:07.438Z,5.45
2017-10-31T20:01:44.301Z,5.43
2017-10-31T20:04:22.021Z,5.37
2017-10-31T20:06:58.717Z,5.25
2017-10-31T20:09:35.412Z,5.21
2017-10-31T20:12:12.054Z,5.23
2017-10-31T20:14:49.448Z,5.24
2017-10-31T20:17:26.229Z,5.26
2017-10-31T20:20:04.988Z,5.23
2017-10-31T20:22:41.490Z,5.17
2017-10-31T20:25:18.200Z,5.03
2017-10-31T20:27:54.975Z,5.04
2017-10-31T20:30:32.062Z,5.04
2017-10-31T20:33:08.514Z,5.10
2017-10-31T20:35:45.334Z,5.15
2017-10-31T20:38:22.578Z,5.17
2017-10-31T20:40:59.222Z,5.21
2017-10-31T20:43:36.736Z,5.12
2017-10-31T20:46:13.439Z,5.16
2017-10-31T20:48:50.363Z,5.22
2017-10-31T20:51:29.802Z,5.18
2017-10-31T20:54:07.063Z,5.09
2017-10-31T20:56:45.426Z,5.08
2017-10-31T20:59:22.518Z,5.11
2017-10-31T21:02:01.731Z,5.07
2017-10-31T21:04:38.977Z,5.02
2017-10-31T21:07:08.127Z,5.02
2017-10-31T21:09:44.798Z,5.04
2017-10-31T21:12:21.735Z,5.03
2017-10-31T21:14:58.471Z,5.02
2017-10-31T21:17:27.909Z,5.12
2017-10-31T21:20:04.574Z,5.06
2017-10-31T21:22:33.643Z,5.00
2017-10-31T21:25:11.451Z,4.96
2017-10-31T21:27:50.037Z,4.99
2017-10-31T21:30:27.334Z,5.03
2017-10-31T21:35:37.960Z,5.05
2017-10-31T21:38:14.886Z,5.05
2017-10-31T21:40:51.852Z,5.07
2017-10-31T21:43:35.693Z,5.06
2017-10-31T21:46:13.092Z,5.07
2017-10-31T21:48:55.221Z,5.09
2017-10-31T21:51:33.824Z,5.08
2017-10-31T21:54:11.139Z,5.13
2017-10-31T21:56:49.797Z,5.05
2017-10-31T21:59:26.988Z,5.03
2017-10-31T22:02:06.362Z,5.01
2017-10-31T22:04:47.052Z,5.01
2017-10-31T22:07:24.234Z,4.97
2017-10-31T22:10:02.400Z,4.95
2017-10-31T22:12:39.037Z,5.07
2017-10-31T22:15:18.852Z,5.00
2017-10-31T22:17:57.988Z,4.97
2017-10-31T22:20:39.929Z,4.98
2017-10-31T22:23:19.650Z,4.93
2017-10-31T22:25:58.327Z,4.99
2017-10-31T22:28:34.621Z,5.10
2017-10-31T22:31:11.205Z,5.17
2017-10-31T22:33:52.581Z,5.19
2017-10-31T22:36:31.346Z,5.23
2017-10-31T22:39:09.692Z,5.22
2017-10-31T22:41:47.817Z,5.21
2017-10-31T22:44:24.370Z,5.22
2017-10-31T22:47:07.334Z,5.25
2017-10-31T22:49:48.523Z,5.19
2017-10-31T22:52:31.907Z,5.20
2017-10-31T22:55:13.584Z,5.11
2017-10-31T22:57:52.583Z,5.06
2017-10-31T23:00:33.804Z,5.01
2017-10-31T23:03:15.867Z,4.96
2017-10-31T23:05:52.815Z,4.88
2017-10-31T23:08:36.608Z,4.84
2017-10-31T23:11:13.456Z,4.76
2017-10-31T23:13:56.421Z,4.78
2017-10-31T23:16:34.036Z,4.78
2017-10-31T23:19:16.791Z,4.73
2017-10-31T23:21:58.567Z,4.73
2017-10-31T23:30:20.475Z,4.68
2017-10-31T23:35:45.373Z,4.68
2017-10-31T23:38:24.978Z,4.57
2017-10-31T23:41:02.697Z,4.58
2017-10-31T23:43:50.056Z,4.58
2017-10-31T23:46:29.354Z,4.50
2017-10-31T23:49:08.433Z,4.43
2017-10-31T23:51:45.105Z,4.41
2017-10-31T23:54:31.191Z,4.40
2017-10-31T23:57:13.713Z,4.39
2017-10-31T23:59:52.073Z,4.30
